Time;durP1;ratioP1;P1;durP2;ratioP2;P2;SDS_P1;SDS_P2;PMS_P1;PMS_P2;Temp;Humidity;BMP_temperature;BMP_pressure;BME280_temperature;BME280_humidity;BME280_pressure;Samples;Min_cycle;Max_cycle;Signal;HPM_P1;HPM_P2
2023/04/05 00:02:59;;;;;;;14.38;8.60;;;;;;;-3.12;73.88;100860.27;1721219;83;25601;-68
2023/04/05 00:05:33;;;;;;;17.30;8.65;;;;;;;-3.16;73.97;100859.57;1721265;83;25517;-68
2023/04/05 00:08:01;;;;;;;17.27;9.48;;;;;;;-3.21;73.82;100862.82;1674160;84;25622;-67
2023/04/05 00:10:30;;;;;;;15.03;5.80;;;;;;;-3.25;74.15;100861.09;1664837;85;25554;-67
2023/04/05 00:13:00;;;;;;;18.73;9.00;;;;;;;-3.27;74.14;100857.84;1674739;85;29712;-67
2023/04/05 00:15:30;;;;;;;20.20;8.50;;;;;;;-3.28;74.18;100858.05;1674594;85;25741;-67
2023/04/05 00:17:58;;;;;;;17.82;9.15;;;;;;;-3.30;74.31;100852.95;1674708;85;25416;-67
2023/04/05 00:20:25;;;;;;;16.40;8.18;;;;;;;-3.32;74.73;100853.67;1674711;85;25608;-66
2023/04/05 00:22:51;;;;;;;21.07;8.85;;;;;;;-3.32;74.86;100852.84;1674595;84;25393;-67
2023/04/05 00:25:22;;;;;;;19.02;9.13;;;;;;;-3.33;75.12;100853.87;1674650;85;27374;-67
2023/04/05 00:27:48;;;;;;;18.77;9.08;;;;;;;-3.36;74.98;100847.66;1674565;85;25686;-67
2023/04/05 00:30:19;;;;;;;18.82;8.85;;;;;;;-3.35;75.18;100845.30;1674584;85;25667;-67
2023/04/05 00:32:42;;;;;;;18.85;9.70;;;;;;;-3.36;75.08;100841.05;1662883;85;26516;-67
2023/04/05 00:35:10;;;;;;;17.35;8.68;;;;;;;-3.38;75.14;100839.92;1688115;84;32983;-67
2023/04/05 00:37:36;;;;;;;18.23;8.90;;;;;;;-3.38;75.34;100839.41;1721274;83;28090;-68
2023/04/05 00:40:06;;;;;;;17.73;9.53;;;;;;;-3.38;75.48;100835.95;1687939;84;28426;-67
2023/04/05 00:42:32;;;;;;;21.90;10.53;;;;;;;-3.38;75.61;100832.79;1664767;85;25586;-67
2023/04/05 00:44:58;;;;;;;19.12;10.05;;;;;;;-3.37;75.76;100832.30;1674526;84;25618;-67
2023/04/05 00:47:24;;;;;;;18.05;9.00;;;;;;;-3.37;75.67;100828.33;1674609;84;25593;-67
2023/04/05 00:49:52;;;;;;;19.87;8.48;;;;;;;-3.38;75.65;100826.70;1674547;85;27423;-67
2023/04/05 00:52:22;;;;;;;18.90;8.08;;;;;;;-3.38;75.90;100834.11;1674627;85;25538;-69
2023/04/05 00:54:47;;;;;;;18.48;7.78;;;;;;;-3.39;75.81;100832.50;1674275;85;25573;-69
2023/04/05 00:57:15;;;;;;;16.70;8.75;;;;;;;-3.43;75.80;100823.33;1674534;84;25605;-67
2023/04/05 00:59:42;;;;;;;8.53;4.90;;;;;;;-3.44;75.90;100819.07;1674717;85;25558;-68
2023/04/05 01:02:24;;;;;;;21.10;8.35;;;;;;;-3.45;75.82;100825.37;1679813;85;27285;-68
2023/04/05 01:05:08;;;;;;;17.45;7.90;;;;;;;-3.45;75.93;100813.98;1679676;84;26082;-68
2023/04/05 01:07:52;;;;;;;17.23;8.58;;;;;;;-3.48;75.77;100817.83;1681240;83;25600;-68
2023/04/05 01:10:22;;;;;;;18.55;8.58;;;;;;;-3.48;75.88;100815.70;1681447;85;25626;-68
2023/04/05 01:12:50;;;;;;;17.40;6.90;;;;;;;-3.49;76.02;100814.06;1679985;85;25623;-69
2023/04/05 01:15:18;;;;;;;19.13;7.20;;;;;;;-3.51;76.01;100811.62;1680247;85;27453;-69
2023/04/05 01:17:45;;;;;;;15.98;6.95;;;;;;;-3.57;76.15;100808.48;1679894;85;26005;-68
2023/04/05 01:20:13;;;;;;;19.12;8.28;;;;;;;-3.62;76.18;100813.05;1679978;85;25555;-69
2023/04/05 01:23:18;;;;;;;17.87;8.03;;;;;;;-3.66;76.37;100809.67;1679881;85;25623;-69
2023/04/05 01:26:18;;;;;;;15.85;8.18;;;;;;;-3.69;76.37;100809.59;1661576;85;25615;-69
2023/04/05 01:29:16;;;;;;;15.32;8.53;;;;;;;-3.74;76.27;100812.54;1679106;85;25984;-68
2023/04/05 01:32:04;;;;;;;12.23;6.97;;;;;;;-3.79;76.42;100815.27;1680318;85;26019;-68
2023/04/05 01:34:57;;;;;;;15.38;7.33;;;;;;;-3.81;76.31;100818.62;1680013;83;25618;-67
2023/04/05 01:37:29;;;;;;;16.05;6.67;;;;;;;-3.82;76.64;100810.37;1680055;85;25647;-68
2023/04/05 01:40:00;;;;;;;14.47;6.78;;;;;;;-3.84;76.65;100816.37;1680077;85;25629;-68
2023/04/05 01:42:28;;;;;;;16.17;8.03;;;;;;;-3.89;76.45;100812.71;1680072;85;27414;-68
2023/04/05 01:44:58;;;;;;;17.48;8.40;;;;;;;-3.94;76.37;100818.07;1680025;85;25613;-68
2023/04/05 01:47:24;;;;;;;14.30;7.28;;;;;;;-3.99;76.31;100813.89;1680061;85;25437;-68
2023/04/05 01:49:50;;;;;;;16.02;7.12;;;;;;;-4.03;76.46;100817.16;1679905;85;25592;-68
2023/04/05 01:52:18;;;;;;;15.00;7.20;;;;;;;-4.07;76.45;100818.55;1679976;85;25620;-68
2023/04/05 01:54:44;;;;;;;14.98;7.42;;;;;;;-4.10;76.47;100811.85;1679945;85;27369;-68
2023/04/05 01:57:13;;;;;;;11.55;6.65;;;;;;;-4.12;76.68;100816.50;1679952;85;25553;-68
2023/04/05 01:59:39;;;;;;;16.65;9.45;;;;;;;-4.15;76.80;100813.77;1679894;85;25599;-68
2023/04/05 02:02:05;;;;;;;16.95;9.18;;;;;;;-4.15;76.78;100810.31;1679769;84;25648;-67
2023/04/05 02:04:32;;;;;;;19.50;10.23;;;;;;;-4.18;76.75;100814.67;1679960;85;25469;-67
2023/04/05 02:06:58;;;;;;;17.52;9.30;;;;;;;-4.20;76.81;100816.19;1679995;85;27315;-68
2023/04/05 02:09:25;;;;;;;17.67;9.25;;;;;;;-4.22;76.84;100821.34;1679830;85;25601;-67
2023/04/05 02:11:52;;;;;;;17.60;10.25;;;;;;;-4.24;76.71;100824.21;1679918;85;25634;-67
2023/04/05 02:14:24;;;;;;;17.73;9.60;;;;;;;-4.26;76.82;100821.44;1680012;85;26535;-68
2023/04/05 02:16:54;;;;;;;14.95;9.15;;;;;;;-4.27;76.66;100823.28;1680120;85;25602;-67
2023/04/05 02:19:24;;;;;;;18.02;9.70;;;;;;;-4.26;76.74;100814.84;1679960;85;27384;-68
2023/04/05 02:21:56;;;;;;;16.93;10.05;;;;;;;-4.24;76.44;100819.41;1679906;84;25649;-68
2023/04/05 02:24:24;;;;;;;19.87;9.33;;;;;;;-4.24;76.84;100817.61;1679902;85;25474;-68
2023/04/05 02:26:50;;;;;;;18.65;10.08;;;;;;;-4.22;76.80;100819.53;1679944;85;25627;-67
2023/04/05 02:29:17;;;;;;;16.48;9.20;;;;;;;-4.24;76.67;100816.28;1685382;84;25433;-67
2023/04/05 02:31:43;;;;;;;18.90;9.53;;;;;;;-4.26;76.60;100817.48;1685317;84;29659;-67
2023/04/05 02:34:12;;;;;;;17.12;9.08;;;;;;;-4.27;76.64;100821.13;1679744;85;25416;-67
2023/04/05 02:36:40;;;;;;;18.67;9.18;;;;;;;-4.28;76.66;100817.67;1679921;85;25446;-67
2023/04/05 02:39:08;;;;;;;18.92;9.98;;;;;;;-4.26;77.01;100814.84;1662374;85;25593;-68
2023/04/05 02:41:36;;;;;;;16.45;9.55;;;;;;;-4.27;77.09;100815.84;1685408;84;32405;-67
2023/04/05 02:44:02;;;;;;;16.95;8.75;;;;;;;-4.27;76.97;100814.52;1679885;85;27386;-67
2023/04/05 02:46:28;;;;;;;17.10;8.78;;;;;;;-4.27;77.30;100815.36;1679855;85;25616;-68
2023/04/05 02:48:57;;;;;;;16.73;9.08;;;;;;;-4.26;77.38;100809.04;1679841;85;25393;-68
2023/04/05 02:51:23;;;;;;;20.82;9.40;;;;;;;-4.26;77.18;100812.20;1679987;85;25633;-67
2023/04/05 02:53:49;;;;;;;16.42;9.63;;;;;;;-4.27;76.76;100815.84;1679904;85;25491;-68
2023/04/05 02:56:15;;;;;;;17.92;9.23;;;;;;;-4.26;76.62;100817.48;1679939;85;27402;-67
2023/04/05 02:58:42;;;;;;;16.12;9.03;;;;;;;-4.27;76.50;100813.20;1679759;85;25536;-67
2023/04/05 03:01:08;;;;;;;17.48;9.45;;;;;;;-4.27;76.86;100811.39;1686413;84;25536;-67
2023/04/05 03:03:39;;;;;;;21.33;10.65;;;;;;;-4.28;76.48;100807.63;1678875;85;25696;-67
2023/04/05 03:06:10;;;;;;;23.52;10.05;;;;;;;-4.27;76.87;100815.84;1725931;83;25621;-67
2023/04/05 03:08:43;;;;;;;19.80;10.48;;;;;;;-4.29;76.95;100809.46;1669189;85;27524;-67
2023/04/05 03:11:12;;;;;;;22.95;10.88;;;;;;;-4.29;76.47;100809.46;1692079;84;25789;-67
2023/04/05 03:13:39;;;;;;;24.92;11.18;;;;;;;-4.28;76.78;100811.59;1679097;85;25562;-67
2023/04/05 03:16:07;;;;;;;19.60;11.08;;;;;;;-4.28;77.03;100813.72;1725731;83;25617;-67
2023/04/05 03:18:35;;;;;;;19.32;10.98;;;;;;;-4.27;76.85;100815.84;1725963;83;25541;-67
2023/04/05 03:21:03;;;;;;;21.15;10.53;;;;;;;-4.28;76.98;100812.91;1731627;82;27849;-67
2023/04/05 03:23:32;;;;;;;21.33;11.12;;;;;;;-4.28;77.12;100811.59;1725780;83;25608;-67
2023/04/05 03:26:01;;;;;;;23.47;11.20;;;;;;;-4.27;77.11;100809.23;1725952;83;25586;-67
2023/04/05 03:28:31;;;;;;;23.40;10.58;;;;;;;-4.26;77.22;100813.52;1692057;84;25952;-68
2023/04/05 03:30:59;;;;;;;;;;;;;;;-4.26;77.12;100813.00;1681461;84;25471;-68
2023/04/05 03:33:27;;;;;;;19.73;11.18;;;;;;;-4.24;77.22;100818.09;1678712;85;27456;-68
2023/04/05 03:35:54;;;;;;;20.00;10.32;;;;;;;-4.28;77.15;100811.07;1678848;85;25460;-67
2023/04/05 03:38:22;;;;;;;20.77;11.03;;;;;;;-4.29;77.01;100814.74;1685882;83;25695;-68
2023/04/05 03:40:48;;;;;;;20.45;10.68;;;;;;;-4.30;77.05;100815.74;1678941;85;25607;-68
2023/04/05 03:43:15;;;;;;;17.02;9.60;;;;;;;-4.31;76.95;100816.74;1725689;83;25937;-68
2023/04/05 03:45:43;;;;;;;20.20;9.80;;;;;;;-4.33;76.98;100809.02;1679002;85;27325;-68
2023/04/05 03:48:09;;;;;;;16.75;9.43;;;;;;;-4.32;77.15;100813.30;1668844;85;27130;-69
2023/04/05 03:50:37;;;;;;;18.70;10.35;;;;;;;-4.29;77.17;100810.78;1726038;83;25643;-67
2023/04/05 03:53:03;;;;;;;16.02;10.15;;;;;;;-4.26;77.53;100811.68;1679125;85;25686;-67
2023/04/05 03:55:31;;;;;;;18.75;10.72;;;;;;;-4.22;77.68;100811.61;1692952;84;25577;-67
2023/04/05 03:57:57;;;;;;;16.70;9.28;;;;;;;-4.17;77.80;100810.51;1726386;83;27309;-67
2023/04/05 04:00:23;;;;;;;25.05;10.08;;;;;;;-4.10;78.02;100808.38;1692794;84;25961;-68
2023/04/05 04:02:52;;;;;;;18.82;12.07;;;;;;;-4.04;78.31;100809.72;1675181;84;25436;-68
2023/04/05 04:05:20;;;;;;;17.98;10.93;;;;;;;-3.98;78.48;100814.73;1674910;84;25756;-69
2023/04/05 04:07:47;;;;;;;19.65;10.50;;;;;;;-3.91;78.61;100811.59;1674619;84;25546;-68
2023/04/05 04:10:16;;;;;;;23.02;10.23;;;;;;;-3.83;78.70;100805.28;1646904;85;27290;-69
2023/04/05 04:12:46;;;;;;;19.12;10.85;;;;;;;-3.76;78.55;100812.73;1674703;85;25383;-68
2023/04/05 04:15:14;;;;;;;23.75;10.88;;;;;;;-3.68;78.73;100817.00;1674603;84;25440;-67
2023/04/05 04:17:40;;;;;;;21.65;10.80;;;;;;;-3.62;78.83;100813.05;1674590;85;25637;-69
2023/04/05 04:20:10;;;;;;;16.50;8.70;;;;;;;-3.56;78.84;100812.73;1674696;84;25392;-69
2023/04/05 04:22:39;;;;;;;16.77;7.33;;;;;;;-3.50;78.99;100815.91;1674677;85;27417;-68
2023/04/05 04:25:10;;;;;;;12.43;7.30;;;;;;;-3.44;79.04;100820.88;1674781;84;25475;-69
2023/04/05 04:27:41;;;;;;;20.37;9.93;;;;;;;-3.36;79.03;100826.49;1674690;84;25640;-68
2023/04/05 04:30:13;;;;;;;16.73;8.73;;;;;;;-3.32;78.93;100829.86;1674591;84;25632;-69
2023/04/05 04:32:55;;;;;;;18.37;9.18;;;;;;;-3.27;78.78;100823.45;1674701;85;25420;-67
2023/04/05 04:35:28;;;;;;;17.67;9.43;;;;;;;-3.24;78.93;100828.83;1674659;84;26608;-68
2023/04/05 04:37:59;;;;;;;23.10;12.45;;;;;;;-3.19;79.13;100830.34;1674622;85;25629;-68
2023/04/05 04:40:37;;;;;;;23.70;12.65;;;;;;;-3.13;79.41;100826.06;1674758;85;25586;-68
2023/04/05 04:43:15;;;;;;;24.65;12.68;;;;;;;-3.06;79.50;100826.89;1674662;84;25640;-66
2023/04/05 04:45:48;;;;;;;23.50;12.00;;;;;;;-3.01;79.58;100829.73;1674634;85;25392;-68
2023/04/05 04:48:17;;;;;;;25.35;12.20;;;;;;;-2.94;79.64;100823.91;1674614;85;27849;-68
2023/04/05 04:50:48;;;;;;;26.87;13.08;;;;;;;-2.87;79.73;100830.52;1674703;85;25630;-69
2023/04/05 04:53:17;;;;;;;22.58;12.68;;;;;;;-2.81;79.74;100825.70;1674695;85;25420;-69
2023/04/05 04:55:49;;;;;;;24.57;14.18;;;;;;;-2.73;79.80;100828.66;1674594;85;26218;-67
2023/04/05 04:58:13;;;;;;;26.02;14.85;;;;;;;-2.68;79.78;100823.03;1674426;84;25586;-64
2023/04/05 05:00:43;;;;;;;24.50;13.00;;;;;;;-2.64;79.64;100822.94;1674664;84;28031;-66
2023/04/05 05:03:12;;;;;;;24.67;13.60;;;;;;;-2.56;79.84;100820.55;1679175;84;25476;-66
2023/04/05 05:05:45;;;;;;;25.92;13.93;;;;;;;-2.49;79.96;100821.33;1680121;85;34730;-66
2023/04/05 05:08:14;;;;;;;28.32;14.60;;;;;;;-2.41;80.02;100828.77;1679961;85;25684;-66
2023/04/05 05:10:42;;;;;;;29.35;15.43;;;;;;;-2.32;80.20;100831.47;1679975;85;25377;-65
2023/04/05 05:13:11;;;;;;;22.70;13.30;;;;;;;-2.23;80.37;100829.39;1679983;85;27338;-65
2023/04/05 05:15:40;;;;;;;26.97;15.00;;;;;;;-2.13;80.49;100820.48;1680155;84;25457;-66
2023/04/05 05:18:11;;;;;;;30.25;14.00;;;;;;;-2.07;80.25;100825.75;1680040;85;25572;-65
2023/04/05 05:20:41;;;;;;;27.30;14.43;;;;;;;-1.98;80.19;100830.81;1679888;85;27729;-65
2023/04/05 05:23:09;;;;;;;29.95;15.32;;;;;;;-1.93;80.19;100826.48;1680058;85;25592;-64
2023/04/05 05:25:36;;;;;;;31.60;15.40;;;;;;;-1.85;80.34;100824.63;1679955;85;27400;-64
2023/04/05 05:28:02;;;;;;;28.67;15.40;;;;;;;-1.77;80.43;100829.66;1679891;85;27231;-65
2023/04/05 05:30:28;;;;;;;25.48;14.18;;;;;;;-1.67;80.46;100833.17;1679909;85;25526;-66
2023/04/05 05:32:56;;;;;;;32.08;15.95;;;;;;;-1.60;80.60;100833.44;1679855;85;25602;-66
2023/04/05 05:35:23;;;;;;;30.25;15.95;;;;;;;-1.54;80.51;100831.23;1679906;85;25589;-66
2023/04/05 05:37:49;;;;;;;36.80;16.15;;;;;;;-1.41;80.65;100841.47;1685406;84;28294;-65
2023/04/05 05:40:17;;;;;;;30.70;16.23;;;;;;;-1.32;80.70;100834.34;1679872;85;25463;-67
2023/04/05 05:42:44;;;;;;;31.77;16.57;;;;;;;-1.26;80.13;100838.48;1681441;85;25464;-66
2023/04/05 05:45:11;;;;;;;25.97;14.68;;;;;;;-1.21;80.30;100836.81;1681424;85;25693;-66
2023/04/05 05:47:37;;;;;;;27.40;15.13;;;;;;;-1.10;80.54;100842.45;1681560;85;25645;-66
2023/04/05 05:50:05;;;;;;;25.57;13.80;;;;;;;-1.07;80.19;100836.19;1681425;85;27359;-67
2023/04/05 05:52:32;;;;;;;27.95;12.60;;;;;;;-0.96;79.99;100842.61;1633516;85;25493;-67
2023/04/05 05:54:58;;;;;;;25.62;12.45;;;;;;;-0.91;80.05;100846.75;1681526;85;25586;-66
2023/04/05 05:57:24;;;;;;;27.55;13.40;;;;;;;-0.82;80.49;100848.60;1650329;85;26254;-65
2023/04/05 05:59:50;;;;;;;25.57;15.35;;;;;;;-0.73;80.39;100841.98;1680986;85;25660;-66
2023/04/05 06:02:17;;;;;;;31.33;15.78;;;;;;;-0.64;80.02;100855.80;1673778;85;27351;-66
2023/04/05 06:04:44;;;;;;;22.50;12.35;;;;;;;-0.60;80.18;100852.98;1708889;83;25432;-66
2023/04/05 06:07:11;;;;;;;26.50;12.80;;;;;;;-0.56;79.69;100848.86;1708934;84;25497;-66
2023/04/05 06:09:37;;;;;;;21.33;12.63;;;;;;;-0.52;79.42;100851.36;1708839;84;25605;-66
2023/04/05 06:12:05;;;;;;;27.07;12.70;;;;;;;-0.45;79.56;100860.06;1708968;84;25587;-68
2023/04/05 06:14:31;;;;;;;27.07;12.80;;;;;;;-0.39;79.47;100861.84;1722731;83;27303;-67
2023/04/05 06:16:57;;;;;;;23.00;13.03;;;;;;;-0.35;79.20;100862.74;1708854;84;31608;-67
2023/04/05 06:19:24;;;;;;;21.73;12.33;;;;;;;-0.30;79.03;100862.89;1709001;84;25551;-67
2023/04/05 06:21:51;;;;;;;25.12;11.75;;;;;;;-0.25;79.05;100861.70;1708924;84;25606;-67
2023/04/05 06:24:17;;;;;;;24.70;12.18;;;;;;;-0.21;78.73;100862.87;1708928;84;25448;-66
2023/04/05 06:26:44;;;;;;;23.60;11.83;;;;;;;-0.16;78.61;100861.68;1708910;84;27382;-68
2023/04/05 06:29:10;;;;;;;21.23;11.53;;;;;;;-0.14;78.53;100864.92;1708860;84;25624;-66
2023/04/05 06:31:37;;;;;;;22.27;12.10;;;;;;;-0.08;78.67;100867.22;1708915;84;25426;-67
2023/04/05 06:34:03;;;;;;;25.77;13.20;;;;;;;-0.01;78.88;100866.09;1674585;85;25601;-66
2023/04/05 06:36:31;;;;;;;29.95;13.13;;;;;;;0.05;78.66;100862.23;1674559;85;25629;-66
2023/04/05 06:38:58;;;;;;;23.67;12.75;;;;;;;0.13;78.62;100868.05;1674564;85;27263;-66
2023/04/05 06:41:26;;;;;;;25.23;12.15;;;;;;;0.18;78.42;100866.86;1708833;83;25669;-66
2023/04/05 06:43:52;;;;;;;21.65;12.07;;;;;;;0.26;78.24;100870.27;1698371;84;25508;-67
2023/04/05 06:46:19;;;;;;;23.25;10.60;;;;;;;0.34;78.39;100869.92;1674507;85;25750;-66
2023/04/05 06:48:47;;;;;;;22.25;11.48;;;;;;;0.41;77.86;100868.49;1674573;85;25614;-67
2023/04/05 06:51:13;;;;;;;19.20;10.18;;;;;;;0.47;77.85;100867.59;1708924;83;27371;-66
2023/04/05 06:53:40;;;;;;;23.55;10.63;;;;;;;0.59;78.36;100866.30;1708827;84;25646;-66
2023/04/05 06:56:07;;;;;;;19.95;9.45;;;;;;;0.68;78.12;100871.07;1674187;85;25664;-67
2023/04/05 06:58:34;;;;;;;15.48;8.65;;;;;;;0.77;77.52;100876.04;1708907;83;26141;-66
2023/04/05 07:01:00;;;;;;;14.10;8.33;;;;;;;0.81;76.94;100876.69;1708928;84;25645;-66
2023/04/05 07:03:27;;;;;;;17.15;8.73;;;;;;;0.85;76.46;100879.70;1717446;83;27420;-66
2023/04/05 07:06:01;;;;;;;16.73;8.85;;;;;;;0.88;76.25;100878.72;1721115;83;25568;-66
2023/04/05 07:08:31;;;;;;;16.57;8.55;;;;;;;0.95;76.47;100880.48;1721214;83;25480;-65
2023/04/05 07:10:57;;;;;;;15.10;7.92;;;;;;;1.03;76.19;100876.95;1721322;83;25800;-66
2023/04/05 07:13:24;;;;;;;12.68;7.33;;;;;;;1.08;76.14;100878.92;1721246;83;25572;-66
2023/04/05 07:16:06;;;;;;;13.68;7.45;;;;;;;1.17;75.79;100876.72;1721459;83;27456;-66
2023/04/05 07:18:32;;;;;;;18.73;8.68;;;;;;;1.23;75.14;100880.61;1674488;84;25425;-66
2023/04/05 07:20:59;;;;;;;14.53;7.15;;;;;;;1.30;75.16;100888.48;1674555;85;25499;-66
2023/04/05 07:23:27;;;;;;;13.98;8.13;;;;;;;1.36;74.82;100886.20;1674493;85;26175;-65
2023/04/05 07:25:55;;;;;;;12.98;6.10;;;;;;;1.42;73.89;100885.81;1687796;84;25829;-67
2023/04/05 07:28:22;;;;;;;11.80;5.60;;;;;;;1.47;73.63;100885.40;1664552;85;27187;-67
2023/04/05 07:30:48;;;;;;;10.98;6.03;;;;;;;1.55;73.53;100884.24;1674482;85;25542;-68
2023/04/05 07:33:15;;;;;;;16.93;7.55;;;;;;;1.63;73.46;100887.05;1674547;85;25440;-67
2023/04/05 07:35:41;;;;;;;15.45;7.47;;;;;;;1.73;73.65;100882.47;1674515;85;25514;-67
2023/04/05 07:38:10;;;;;;;73.37;67.82;;;;;;;1.81;73.23;100888.23;1674569;84;25598;-66
2023/04/05 07:40:36;;;;;;;84.28;77.80;;;;;;;1.91;72.88;100885.48;1664475;85;28221;-66
2023/04/05 07:43:03;;;;;;;13.48;6.92;;;;;;;1.95;71.94;100884.78;1640817;85;25614;-65
2023/04/05 07:45:29;;;;;;;77.22;71.02;;;;;;;1.99;71.65;100885.11;1674511;84;25641;-65
2023/04/05 07:47:56;;;;;;;83.87;77.67;;;;;;;2.02;70.66;100881.97;1674456;84;25674;-66
2023/04/05 07:50:22;;;;;;;83.52;77.53;;;;;;;2.04;70.39;100886.04;1674511;85;25424;-65
2023/04/05 07:52:49;;;;;;;83.62;77.30;;;;;;;2.06;70.05;100885.80;1674498;84;27413;-66
2023/04/05 07:55:16;;;;;;;83.78;77.85;;;;;;;2.10;69.19;100887.47;1674450;84;25767;-67
2023/04/05 07:57:42;;;;;;;84.17;77.65;;;;;;;2.10;69.28;100884.27;1674514;85;25655;-66
2023/04/05 08:00:12;;;;;;;20.92;18.75;;;;;;;2.21;69.68;100885.27;1674475;84;25632;-68
2023/04/05 08:02:39;;;;;;;23.27;9.68;;;;;;;2.32;68.99;100892.42;1675789;84;25478;-66
2023/04/05 08:05:07;;;;;;;36.33;32.98;;;;;;;2.40;69.25;100892.05;1679906;85;27395;-66
2023/04/05 08:07:33;;;;;;;10.68;5.42;;;;;;;2.49;68.48;100886.32;1679816;85;25669;-65
2023/04/05 08:09:59;;;;;;;13.35;5.33;;;;;;;2.57;67.72;100892.58;1679860;85;25496;-66
2023/04/05 08:12:26;;;;;;;10.95;5.17;;;;;;;2.58;67.42;100882.99;1679882;85;26163;-67
2023/04/05 08:14:53;;;;;;;8.45;4.50;;;;;;;2.67;67.87;100880.73;1685288;84;25432;-66
2023/04/05 08:17:19;;;;;;;10.78;4.60;;;;;;;2.78;67.05;100891.08;1655908;85;27344;-66
2023/04/05 08:19:45;;;;;;;9.20;4.00;;;;;;;2.85;66.49;100893.06;1679828;85;25701;-65
2023/04/05 08:22:11;;;;;;;36.25;33.75;;;;;;;2.90;66.17;100883.80;1679868;85;25604;-67
2023/04/05 08:24:38;;;;;;;83.22;77.12;;;;;;;3.01;65.39;100889.30;1679886;85;25627;-67
2023/04/05 08:27:04;;;;;;;61.88;57.58;;;;;;;3.04;65.11;100890.16;1679906;85;25404;-67
2023/04/05 08:29:30;;;;;;;82.72;77.03;;;;;;;3.12;65.13;100888.41;1679879;85;27507;-66
2023/04/05 08:31:59;;;;;;;83.12;77.03;;;;;;;3.21;64.62;100882.92;1679867;85;27300;-66
2023/04/05 08:34:26;;;;;;;84.07;78.10;;;;;;;3.29;64.63;100883.84;1662794;85;25598;-67
2023/04/05 08:36:52;;;;;;;82.92;76.95;;;;;;;3.39;64.61;100885.03;1680080;85;25705;-66
2023/04/05 08:39:18;;;;;;;25.75;23.38;;;;;;;3.50;64.36;100888.94;1685688;84;25245;-67
2023/04/05 08:42:02;;;;;;;11.90;9.35;;;;;;;3.57;63.47;100885.28;1685579;84;27364;-67
2023/04/05 08:44:30;;;;;;;8.30;4.65;;;;;;;3.52;62.36;100888.70;1678202;85;25840;-66
2023/04/05 08:46:59;;;;;;;35.92;33.15;;;;;;;3.53;62.20;100891.66;1679100;85;25685;-67
2023/04/05 08:49:27;;;;;;;41.75;38.25;;;;;;;3.58;62.31;100890.39;1639827;85;25700;-66
2023/04/05 08:51:54;;;;;;;16.23;11.70;;;;;;;3.63;61.76;100889.13;1662237;85;25567;-64
2023/04/05 08:54:21;;;;;;;81.47;75.67;;;;;;;3.65;61.37;100889.67;1679994;85;27409;-64
2023/04/05 08:56:48;;;;;;;75.47;69.95;;;;;;;3.68;61.46;100891.86;1679236;85;25780;-66
2023/04/05 08:59:18;;;;;;;41.42;38.63;;;;;;;3.72;60.67;100892.17;1679781;85;25641;-65
2023/04/05 09:01:47;;;;;;;58.78;54.70;;;;;;;3.74;60.50;100890.85;1679961;85;26212;-64
2023/04/05 09:04:21;;;;;;;7.75;4.55;;;;;;;3.80;60.07;100892.25;1679810;84;25393;-63
2023/04/05 09:06:50;;;;;;;7.85;4.72;;;;;;;3.72;59.30;100891.63;1680104;85;27348;-63
2023/04/05 09:09:19;;;;;;;;;;;;;;;3.71;59.48;100891.37;1682434;85;25570;-63
2023/04/05 09:11:47;;;;;;;61.37;56.97;;;;;;;3.65;59.04;100891.02;1681791;85;25470;-62
2023/04/05 09:14:16;;;;;;;82.90;76.80;;;;;;;3.61;59.39;100891.75;1674331;85;25713;-62
2023/04/05 09:16:43;;;;;;;83.78;77.17;;;;;;;3.55;58.84;100891.68;1674484;85;25476;-62
2023/04/05 09:19:10;;;;;;;83.85;77.90;;;;;;;3.46;58.57;100885.69;1674327;85;27387;-63
2023/04/05 09:22:04;;;;;;;82.35;76.55;;;;;;;3.34;58.49;100882.58;1674228;85;25643;-63
2023/04/05 09:24:40;;;;;;;84.77;78.40;;;;;;;3.30;58.78;100892.16;1674294;85;25585;-63
2023/04/05 09:27:14;;;;;;;85.03;78.62;;;;;;;3.20;58.75;100881.83;1674321;85;26316;-63
2023/04/05 09:29:45;;;;;;;83.05;76.57;;;;;;;3.16;59.03;100884.18;1679013;84;25448;-62
2023/04/05 09:32:13;;;;;;;84.22;78.28;;;;;;;3.15;58.98;100882.55;1680643;85;29552;-60
2023/04/05 09:34:44;;;;;;;82.72;76.92;;;;;;;3.11;58.59;100889.45;1681366;85;25651;-76
2023/04/05 09:37:19;;;;;;;82.35;76.42;;;;;;;3.04;58.99;100882.94;1681503;85;25472;-75
2023/04/05 09:39:50;;;;;;;81.40;75.60;;;;;;;3.09;59.09;100884.34;1655989;85;25676;-75
2023/04/05 09:42:19;;;;;;;82.53;76.53;;;;;;;3.17;59.35;100889.28;1681551;85;25489;-74
2023/04/05 09:45:01;;;;;;;83.05;77.03;;;;;;;3.25;58.95;100884.06;1681554;85;27327;-71
2023/04/05 09:47:33;;;;;;;18.35;16.45;;;;;;;3.27;58.71;100887.80;1681646;85;25697;-79
2023/04/05 09:50:05;;;;;;;12.00;10.78;;;;;;;3.28;58.51;100888.09;1682284;85;25448;-77
2023/04/05 09:52:32;;;;;;;9.08;5.75;;;;;;;3.34;58.59;100892.48;1674799;85;26204;-80
2023/04/05 09:55:06;;;;;;;16.65;8.15;;;;;;;3.36;58.45;100888.48;1674834;85;25434;-79
2023/04/05 09:57:43;;;;;;;19.32;16.32;;;;;;;3.44;58.50;100886.44;1647217;85;27277;-76
2023/04/05 10:00:21;;;;;;;87.00;80.30;;;;;;;3.46;58.31;100890.50;1674508;85;25582;-74
2023/04/05 10:02:54;;;;;;;82.93;77.03;;;;;;;3.49;57.89;100894.53;1674490;85;25669;-67
2023/04/05 10:05:24;;;;;;;85.32;78.60;;;;;;;3.44;57.56;100887.27;1668469;86;25649;-66
2023/04/05 10:07:51;;;;;;;81.82;75.92;;;;;;;3.40;57.00;100891.47;1668495;86;25649;-67
2023/04/05 10:10:17;;;;;;;81.95;76.07;;;;;;;3.33;56.85;100888.97;1668490;86;28037;-67
2023/04/05 10:12:46;;;;;;;83.20;77.35;;;;;;;3.34;57.17;100887.13;1644305;86;25494;-67
2023/04/05 10:15:13;;;;;;;80.87;75.17;;;;;;;3.35;56.01;100884.72;1649320;86;25462;-67
2023/04/05 10:18:06;;;;;;;79.90;74.17;;;;;;;3.27;55.82;100886.47;1668447;86;25806;-68
2023/04/05 10:20:40;;;;;;;79.55;73.72;;;;;;;3.16;54.94;100878.84;1668373;86;25482;-69
2023/04/05 10:23:15;;;;;;;79.55;73.97;;;;;;;2.99;55.09;100880.18;1668509;86;27124;-68
2023/04/05 10:25:57;;;;;;;80.32;74.53;;;;;;;2.92;55.51;100879.55;1648786;86;25767;-71
2023/04/05 10:28:32;;;;;;;84.22;77.97;;;;;;;2.98;56.26;100876.71;1668497;86;25482;-71
2023/04/05 10:31:19;;;;;;;81.08;75.55;;;;;;;3.14;56.67;100882.28;1668442;86;25619;-71
2023/04/05 10:33:50;;;;;;;81.20;75.28;;;;;;;3.32;56.73;100876.67;1668549;86;25594;-70
2023/04/05 10:36:36;;;;;;;79.95;74.35;;;;;;;3.46;56.29;100874.45;1668496;86;27369;-70
2023/04/05 10:39:11;;;;;;;81.50;75.62;;;;;;;3.64;56.50;100874.67;1668477;86;25548;-70
2023/04/05 10:41:45;;;;;;;81.97;75.90;;;;;;;3.89;56.45;100870.16;1648992;86;25518;-72
2023/04/05 10:44:13;;;;;;;98.17;89.65;;;;;;;4.15;56.42;100866.43;1668172;85;25613;-67
2023/04/05 10:46:41;;;;;;;88.20;81.15;;;;;;;4.36;54.80;100871.48;1668456;86;25420;-71
2023/04/05 10:49:25;;;;;;;84.65;78.50;;;;;;;4.39;54.97;100864.80;1671811;85;27994;-69
2023/04/05 10:51:52;;;;;;;84.25;78.12;;;;;;;4.38;53.68;100859.17;1668513;86;25601;-64
2023/04/05 10:54:19;;;;;;;80.60;75.17;;;;;;;4.39;54.22;100858.92;1668410;86;25460;-71
2023/04/05 10:56:46;;;;;;;29.52;27.17;;;;;;;4.50;53.87;100865.18;1668427;86;26223;-72
2023/04/05 10:59:14;;;;;;;7.08;3.77;;;;;;;4.57;53.53;100869.80;1649122;86;25442;-72
2023/04/05 11:01:42;;;;;;;6.97;3.75;;;;;;;4.67;53.53;100866.41;1678956;85;27368;-71
2023/04/05 11:04:14;;;;;;;5.28;3.50;;;;;;;4.76;53.51;100869.42;1678777;85;25574;-72
2023/04/05 11:06:41;;;;;;;5.85;3.67;;;;;;;4.84;52.92;100868.41;1725885;83;25576;-72
2023/04/05 11:09:19;;;;;;;6.12;3.55;;;;;;;4.89;52.54;100871.67;1725803;83;26220;-72
2023/04/05 11:11:48;;;;;;;7.33;3.90;;;;;;;4.86;51.55;100872.17;1725450;82;25427;-72
2023/04/05 11:14:35;;;;;;;5.87;3.60;;;;;;;4.79;50.94;100871.05;1679062;85;27958;-71
2023/04/05 11:17:03;;;;;;;7.90;4.00;;;;;;;4.75;51.00;100869.95;1707352;83;25651;-71
2023/04/05 11:19:52;;;;;;;8.53;4.05;;;;;;;4.75;51.56;100868.62;1678962;85;25644;-73
2023/04/05 11:22:29;;;;;;;6.50;3.90;;;;;;;4.80;51.57;100870.51;1726065;82;25791;-71
2023/04/05 11:25:01;;;;;;;11.22;3.67;;;;;;;4.84;50.94;100870.30;1680280;84;25237;-71
2023/04/05 11:27:36;;;;;;;7.87;4.72;;;;;;;4.81;50.69;100872.94;1726051;83;27445;-65
2023/04/05 11:30:05;;;;;;;8.85;3.98;;;;;;;4.77;50.89;100872.38;1672454;85;25714;-66